sensor_id;sensor_type;location;lat;lon;timestamp;P1;durP1;ratioP1;P2;durP2;ratioP2
22176;SDS011;11254;50.098;8.726;2024-03-08T00:00:27;26.77;;;12.65;;
22176;SDS011;11254;50.098;8.726;2024-03-08T00:02:58;23.67;;;11.75;;
22176;SDS011;11254;50.098;8.726;2024-03-08T19:46:43;22.88;;;11.13;;
22176;SDS011;11254;50.098;8.726;2024-03-08T19:49:12;21.63;;;10.35;;
22176;SDS011;11254;50.098;8.726;2024-03-08T19:51:43;21.08;;;8.65;;
22176;SDS011;11254;50.098;8.726;2024-03-08T19:54:12;20.17;;;10.38;;
22176;SDS011;11254;50.098;8.726;2024-03-08T19:56:41;20.63;;;10.32;;
22176;SDS011;11254;50.098;8.726;2024-03-08T19:59:11;21.05;;;10.82;;
22176;SDS011;11254;50.098;8.726;2024-03-08T20:01:39;20.35;;;10.73;;
22176;SDS011;11254;50.098;8.726;2024-03-08T20:04:12;19.60;;;10.27;;
22176;SDS011;11254;50.098;8.726;2024-03-08T20:06:40;20.58;;;10.70;;
22176;SDS011;11254;50.098;8.726;2024-03-08T20:09:11;20.17;;;10.40;;
22176;SDS011;11254;50.098;8.726;2024-03-08T20:11:42;22.05;;;10.70;;
22176;SDS011;11254;50.098;8.726;2024-03-08T20:14:12;22.20;;;10.60;;
22176;SDS011;11254;50.098;8.726;2024-03-08T20:16:40;21.45;;;11.25;;
22176;SDS011;11254;50.098;8.726;2024-03-08T20:19:09;20.20;;;10.60;;
22176;SDS011;11254;50.098;8.726;2024-03-08T20:21:40;24.33;;;11.00;;
22176;SDS011;11254;50.098;8.726;2024-03-08T20:24:09;22.30;;;11.30;;
22176;SDS011;11254;50.098;8.726;2024-03-08T20:26:40;23.05;;;10.57;;
22176;SDS011;11254;50.098;8.726;2024-03-08T20:29:09;20.80;;;10.70;;
22176;SDS011;11254;50.098;8.726;2024-03-08T20:31:40;20.30;;;11.15;;
22176;SDS011;11254;50.098;8.726;2024-03-08T20:34:10;20.75;;;10.95;;
22176;SDS011;11254;50.098;8.726;2024-03-08T20:36:41;18.67;;;10.23;;
22176;SDS011;11254;50.098;8.726;2024-03-08T20:39:12;24.95;;;10.13;;
22176;SDS011;11254;50.098;8.726;2024-03-08T20:41:41;20.20;;;10.95;;
22176;SDS011;11254;50.098;8.726;2024-03-08T20:44:13;21.77;;;9.98;;
22176;SDS011;11254;50.098;8.726;2024-03-08T20:46:42;21.27;;;9.80;;
22176;SDS011;11254;50.098;8.726;2024-03-08T20:49:10;20.08;;;9.73;;
22176;SDS011;11254;50.098;8.726;2024-03-08T20:51:40;20.33;;;10.68;;
22176;SDS011;11254;50.098;8.726;2024-03-08T20:54:10;18.65;;;10.57;;
22176;SDS011;11254;50.098;8.726;2024-03-08T20:56:38;19.92;;;10.38;;
22176;SDS011;11254;50.098;8.726;2024-03-08T20:59:08;23.80;;;10.60;;
22176;SDS011;11254;50.098;8.726;2024-03-08T21:01:37;22.33;;;11.38;;
22176;SDS011;11254;50.098;8.726;2024-03-08T21:04:07;22.95;;;10.73;;
22176;SDS011;11254;50.098;8.726;2024-03-08T21:06:42;22.95;;;11.70;;
22176;SDS011;11254;50.098;8.726;2024-03-08T21:09:12;23.92;;;12.68;;
22176;SDS011;11254;50.098;8.726;2024-03-08T21:11:41;24.45;;;12.85;;
22176;SDS011;11254;50.098;8.726;2024-03-08T21:14:10;27.05;;;13.48;;
22176;SDS011;11254;50.098;8.726;2024-03-08T21:16:39;23.67;;;12.93;;
22176;SDS011;11254;50.098;8.726;2024-03-08T21:19:08;27.77;;;13.73;;
22176;SDS011;11254;50.098;8.726;2024-03-08T21:21:37;26.77;;;12.60;;
22176;SDS011;11254;50.098;8.726;2024-03-08T21:24:06;24.70;;;11.90;;
22176;SDS011;11254;50.098;8.726;2024-03-08T21:26:37;24.17;;;12.50;;
22176;SDS011;11254;50.098;8.726;2024-03-08T21:29:06;27.27;;;13.25;;
22176;SDS011;11254;50.098;8.726;2024-03-08T21:31:35;27.65;;;13.32;;
22176;SDS011;11254;50.098;8.726;2024-03-08T21:34:04;25.48;;;12.32;;
22176;SDS011;11254;50.098;8.726;2024-03-08T21:36:32;26.13;;;12.25;;
22176;SDS011;11254;50.098;8.726;2024-03-08T21:39:01;27.30;;;12.40;;
22176;SDS011;11254;50.098;8.726;2024-03-08T21:41:38;25.13;;;12.65;;
22176;SDS011;11254;50.098;8.726;2024-03-08T21:44:07;24.90;;;11.93;;
22176;SDS011;11254;50.098;8.726;2024-03-08T21:46:36;24.80;;;11.98;;
22176;SDS011;11254;50.098;8.726;2024-03-08T21:49:05;26.42;;;12.30;;
22176;SDS011;11254;50.098;8.726;2024-03-08T21:51:34;22.65;;;11.55;;
22176;SDS011;11254;50.098;8.726;2024-03-08T21:54:12;24.95;;;12.45;;
22176;SDS011;11254;50.098;8.726;2024-03-08T21:56:42;21.98;;;11.52;;
22176;SDS011;11254;50.098;8.726;2024-03-08T21:59:11;27.00;;;12.52;;
22176;SDS011;11254;50.098;8.726;2024-03-08T22:01:40;22.10;;;11.52;;
22176;SDS011;11254;50.098;8.726;2024-03-08T22:04:10;22.83;;;11.32;;
22176;SDS011;11254;50.098;8.726;2024-03-08T22:06:38;24.25;;;12.80;;
22176;SDS011;11254;50.098;8.726;2024-03-08T22:09:09;24.52;;;13.27;;
22176;SDS011;11254;50.098;8.726;2024-03-08T22:11:38;24.42;;;12.32;;
22176;SDS011;11254;50.098;8.726;2024-03-08T22:14:09;23.98;;;12.43;;
22176;SDS011;11254;50.098;8.726;2024-03-08T22:16:37;22.67;;;11.18;;
22176;SDS011;11254;50.098;8.726;2024-03-08T22:19:06;22.42;;;11.23;;
22176;SDS011;11254;50.098;8.726;2024-03-08T22:21:37;24.60;;;11.75;;
22176;SDS011;11254;50.098;8.726;2024-03-08T22:24:07;23.17;;;11.55;;
22176;SDS011;11254;50.098;8.726;2024-03-08T22:26:37;22.60;;;11.02;;
22176;SDS011;11254;50.098;8.726;2024-03-08T22:29:06;21.77;;;11.18;;
22176;SDS011;11254;50.098;8.726;2024-03-08T22:31:38;21.45;;;10.82;;
22176;SDS011;11254;50.098;8.726;2024-03-08T22:34:07;23.98;;;10.75;;
22176;SDS011;11254;50.098;8.726;2024-03-08T22:36:37;21.40;;;11.07;;
22176;SDS011;11254;50.098;8.726;2024-03-08T22:39:06;23.40;;;11.35;;
22176;SDS011;11254;50.098;8.726;2024-03-08T22:41:40;21.95;;;11.27;;
22176;SDS011;11254;50.098;8.726;2024-03-08T22:44:09;23.30;;;12.10;;
22176;SDS011;11254;50.098;8.726;2024-03-08T22:46:42;26.08;;;12.98;;
22176;SDS011;11254;50.098;8.726;2024-03-08T22:49:13;25.77;;;12.95;;
22176;SDS011;11254;50.098;8.726;2024-03-08T22:51:43;21.95;;;12.18;;
22176;SDS011;11254;50.098;8.726;2024-03-08T22:54:13;23.80;;;11.95;;
22176;SDS011;11254;50.098;8.726;2024-03-08T22:56:44;23.15;;;11.68;;
22176;SDS011;11254;50.098;8.726;2024-03-08T22:59:12;20.83;;;11.82;;
22176;SDS011;11254;50.098;8.726;2024-03-08T23:01:42;22.45;;;11.27;;
22176;SDS011;11254;50.098;8.726;2024-03-08T23:04:11;22.90;;;11.40;;
22176;SDS011;11254;50.098;8.726;2024-03-08T23:06:40;23.85;;;11.80;;
22176;SDS011;11254;50.098;8.726;2024-03-08T23:09:09;23.40;;;11.18;;
22176;SDS011;11254;50.098;8.726;2024-03-08T23:11:39;23.25;;;11.82;;
22176;SDS011;11254;50.098;8.726;2024-03-08T23:14:09;23.55;;;10.82;;
22176;SDS011;11254;50.098;8.726;2024-03-08T23:16:38;25.08;;;11.43;;
22176;SDS011;11254;50.098;8.726;2024-03-08T23:19:10;25.58;;;12.45;;
22176;SDS011;11254;50.098;8.726;2024-03-08T23:21:38;25.17;;;11.85;;
22176;SDS011;11254;50.098;8.726;2024-03-08T23:24:07;23.60;;;12.00;;
22176;SDS011;11254;50.098;8.726;2024-03-08T23:26:37;26.65;;;12.60;;
22176;SDS011;11254;50.098;8.726;2024-03-08T23:29:05;22.58;;;11.82;;
22176;SDS011;11254;50.098;8.726;2024-03-08T23:31:34;24.40;;;12.18;;
22176;SDS011;11254;50.098;8.726;2024-03-08T23:34:05;23.90;;;11.70;;
22176;SDS011;11254;50.098;8.726;2024-03-08T23:36:35;24.88;;;11.77;;
22176;SDS011;11254;50.098;8.726;2024-03-08T23:39:04;26.27;;;12.35;;
22176;SDS011;11254;50.098;8.726;2024-03-08T23:41:38;20.55;;;10.88;;
22176;SDS011;11254;50.098;8.726;2024-03-08T23:44:08;23.63;;;11.52;;
22176;SDS011;11254;50.098;8.726;2024-03-08T23:46:36;24.65;;;11.27;;
22176;SDS011;11254;50.098;8.726;2024-03-08T23:49:07;24.52;;;11.43;;
22176;SDS011;11254;50.098;8.726;2024-03-08T23:51:39;25.73;;;12.25;;
22176;SDS011;11254;50.098;8.726;2024-03-08T23:54:07;24.38;;;11.65;;
22176;SDS011;11254;50.098;8.726;2024-03-08T23:56:36;22.33;;;12.07;;
22176;SDS011;11254;50.098;8.726;2024-03-08T23:59:07;25.35;;;12.23;;
